sensor_id;sensor_type;location;lat;lon;timestamp;temperature;humidity
72106;SHT30;59975;47.646;18.318;2023-05-10T00:00:14;11.88;72.40
72106;SHT30;59975;47.646;18.318;2023-05-10T00:02:39;11.80;72.94
72106;SHT30;59975;47.646;18.318;2023-05-10T00:05:06;11.82;73.72
72106;SHT30;59975;47.646;18.318;2023-05-10T00:07:32;11.80;74.16
72106;SHT30;59975;47.646;18.318;2023-05-10T00:09:57;11.81;74.26
72106;SHT30;59975;47.646;18.318;2023-05-10T00:12:23;11.80;74.74
72106;SHT30;59975;47.646;18.318;2023-05-10T00:14:48;11.66;75.37
72106;SHT30;59975;47.646;18.318;2023-05-10T00:17:14;11.64;75.61
72106;SHT30;59975;47.646;18.318;2023-05-10T00:19:40;11.59;75.93
72106;SHT30;59975;47.646;18.318;2023-05-10T00:22:05;11.53;76.33
72106;SHT30;59975;47.646;18.318;2023-05-10T00:24:30;11.56;76.17
72106;SHT30;59975;47.646;18.318;2023-05-10T00:26:56;11.51;76.54
72106;SHT30;59975;47.646;18.318;2023-05-10T00:29:21;11.47;76.41
72106;SHT30;59975;47.646;18.318;2023-05-10T00:31:47;11.51;76.35
72106;SHT30;59975;47.646;18.318;2023-05-10T00:34:13;11.54;76.43
72106;SHT30;59975;47.646;18.318;2023-05-10T00:36:38;11.41;76.80
72106;SHT30;59975;47.646;18.318;2023-05-10T00:39:04;11.33;77.28
72106;SHT30;59975;47.646;18.318;2023-05-10T00:41:30;11.37;77.20
72106;SHT30;59975;47.646;18.318;2023-05-10T00:43:58;11.26;77.47
72106;SHT30;59975;47.646;18.318;2023-05-10T00:46:24;11.18;78.03
72106;SHT30;59975;47.646;18.318;2023-05-10T00:48:51;11.12;78.37
72106;SHT30;59975;47.646;18.318;2023-05-10T00:51:17;11.08;78.54
72106;SHT30;59975;47.646;18.318;2023-05-10T00:53:44;11.06;78.57
72106;SHT30;59975;47.646;18.318;2023-05-10T00:56:10;11.00;78.61
72106;SHT30;59975;47.646;18.318;2023-05-10T00:58:36;10.98;78.95
72106;SHT30;59975;47.646;18.318;2023-05-10T01:01:02;11.03;78.57
72106;SHT30;59975;47.646;18.318;2023-05-10T01:03:28;10.99;78.84
72106;SHT30;59975;47.646;18.318;2023-05-10T01:05:54;11.02;78.90
72106;SHT30;59975;47.646;18.318;2023-05-10T01:08:19;10.96;78.69
72106;SHT30;59975;47.646;18.318;2023-05-10T01:10:45;10.89;79.04
72106;SHT30;59975;47.646;18.318;2023-05-10T01:13:12;10.86;79.00
72106;SHT30;59975;47.646;18.318;2023-05-10T01:15:38;10.79;79.17
72106;SHT30;59975;47.646;18.318;2023-05-10T01:18:04;10.68;79.44
72106;SHT30;59975;47.646;18.318;2023-05-10T01:20:37;10.66;79.57
72106;SHT30;59975;47.646;18.318;2023-05-10T01:29:17;10.61;79.55
72106;SHT30;59975;47.646;18.318;2023-05-10T01:37:21;10.51;80.00
72106;SHT30;59975;47.646;18.318;2023-05-10T01:40:06;10.48;80.22
72106;SHT30;59975;47.646;18.318;2023-05-10T01:42:40;10.41;80.45
72106;SHT30;59975;47.646;18.318;2023-05-10T01:45:20;10.38;80.71
72106;SHT30;59975;47.646;18.318;2023-05-10T01:47:58;10.37;80.53
72106;SHT30;59975;47.646;18.318;2023-05-10T01:50:27;10.33;80.70
72106;SHT30;59975;47.646;18.318;2023-05-10T01:52:57;10.28;80.93
72106;SHT30;59975;47.646;18.318;2023-05-10T01:55:25;10.21;81.20
72106;SHT30;59975;47.646;18.318;2023-05-10T01:57:58;10.13;81.39
72106;SHT30;59975;47.646;18.318;2023-05-10T02:00:26;10.13;81.46
72106;SHT30;59975;47.646;18.318;2023-05-10T02:02:54;10.10;81.43
72106;SHT30;59975;47.646;18.318;2023-05-10T02:05:21;10.10;81.46
72106;SHT30;59975;47.646;18.318;2023-05-10T02:07:48;10.17;81.24
72106;SHT30;59975;47.646;18.318;2023-05-10T02:10:15;10.21;80.81
72106;SHT30;59975;47.646;18.318;2023-05-10T02:12:43;10.17;81.10
72106;SHT30;59975;47.646;18.318;2023-05-10T02:15:11;10.07;81.43
72106;SHT30;59975;47.646;18.318;2023-05-10T02:17:37;10.00;81.80
72106;SHT30;59975;47.646;18.318;2023-05-10T02:20:06;10.00;81.80
72106;SHT30;59975;47.646;18.318;2023-05-10T02:22:34;10.05;81.59
72106;SHT30;59975;47.646;18.318;2023-05-10T02:25:00;10.00;81.80
72106;SHT30;59975;47.646;18.318;2023-05-10T02:27:27;10.05;81.62
72106;SHT30;59975;47.646;18.318;2023-05-10T02:29:54;9.98;82.01
72106;SHT30;59975;47.646;18.318;2023-05-10T02:32:21;9.98;82.02
72106;SHT30;59975;47.646;18.318;2023-05-10T02:34:48;9.94;82.33
72106;SHT30;59975;47.646;18.318;2023-05-10T02:37:19;9.93;82.23
72106;SHT30;59975;47.646;18.318;2023-05-10T02:39:49;9.90;82.49
72106;SHT30;59975;47.646;18.318;2023-05-10T02:42:22;9.87;82.69
72106;SHT30;59975;47.646;18.318;2023-05-10T02:44:50;9.83;82.81
72106;SHT30;59975;47.646;18.318;2023-05-10T02:47:18;9.84;82.85
72106;SHT30;59975;47.646;18.318;2023-05-10T02:49:44;9.74;82.85
72106;SHT30;59975;47.646;18.318;2023-05-10T02:52:10;9.76;83.28
72106;SHT30;59975;47.646;18.318;2023-05-10T02:54:45;9.70;83.30
72106;SHT30;59975;47.646;18.318;2023-05-10T02:57:16;9.73;83.68
72106;SHT30;59975;47.646;18.318;2023-05-10T02:59:45;9.76;83.35
72106;SHT30;59975;47.646;18.318;2023-05-10T03:02:14;9.79;83.31
72106;SHT30;59975;47.646;18.318;2023-05-10T03:04:39;9.77;83.44
72106;SHT30;59975;47.646;18.318;2023-05-10T03:07:05;9.69;83.68
72106;SHT30;59975;47.646;18.318;2023-05-10T03:09:31;9.72;83.67
72106;SHT30;59975;47.646;18.318;2023-05-10T03:15:20;9.83;82.74
72106;SHT30;59975;47.646;18.318;2023-05-10T03:17:57;9.79;83.06
72106;SHT30;59975;47.646;18.318;2023-05-10T03:20:29;9.76;83.17
72106;SHT30;59975;47.646;18.318;2023-05-10T03:23:04;9.73;83.43
72106;SHT30;59975;47.646;18.318;2023-05-10T03:25:33;9.79;83.16
72106;SHT30;59975;47.646;18.318;2023-05-10T03:28:01;9.86;82.70
72106;SHT30;59975;47.646;18.318;2023-05-10T03:30:27;9.89;82.67
72106;SHT30;59975;47.646;18.318;2023-05-10T03:32:53;9.82;82.93
72106;SHT30;59975;47.646;18.318;2023-05-10T03:35:19;9.84;82.37
72106;SHT30;59975;47.646;18.318;2023-05-10T03:37:45;9.91;82.40
72106;SHT30;59975;47.646;18.318;2023-05-10T03:40:11;9.90;83.00
72106;SHT30;59975;47.646;18.318;2023-05-10T03:42:36;9.93;82.95
72106;SHT30;59975;47.646;18.318;2023-05-10T03:45:02;9.89;83.16
72106;SHT30;59975;47.646;18.318;2023-05-10T03:47:28;9.84;83.52
72106;SHT30;59975;47.646;18.318;2023-05-10T03:49:54;9.93;83.21
72106;SHT30;59975;47.646;18.318;2023-05-10T03:52:20;9.94;83.27
72106;SHT30;59975;47.646;18.318;2023-05-10T03:54:45;10.05;83.28
72106;SHT30;59975;47.646;18.318;2023-05-10T03:57:11;10.24;82.60
72106;SHT30;59975;47.646;18.318;2023-05-10T03:59:36;10.22;82.62
72106;SHT30;59975;47.646;18.318;2023-05-10T04:02:02;10.28;82.61
72106;SHT30;59975;47.646;18.318;2023-05-10T04:04:27;10.28;82.74
72106;SHT30;59975;47.646;18.318;2023-05-10T04:06:53;10.34;82.74
72106;SHT30;59975;47.646;18.318;2023-05-10T04:09:18;10.37;82.08
72106;SHT30;59975;47.646;18.318;2023-05-10T04:11:44;10.42;82.01
72106;SHT30;59975;47.646;18.318;2023-05-10T04:14:09;10.54;81.66
72106;SHT30;59975;47.646;18.318;2023-05-10T04:16:35;10.54;81.67
72106;SHT30;59975;47.646;18.318;2023-05-10T04:19:00;10.55;81.33
72106;SHT30;59975;47.646;18.318;2023-05-10T04:21:26;10.51;81.50
72106;SHT30;59975;47.646;18.318;2023-05-10T04:23:52;10.55;81.30
72106;SHT30;59975;47.646;18.318;2023-05-10T04:26:17;10.62;81.19
72106;SHT30;59975;47.646;18.318;2023-05-10T04:28:43;10.64;81.24
72106;SHT30;59975;47.646;18.318;2023-05-10T04:31:09;10.69;81.56
72106;SHT30;59975;47.646;18.318;2023-05-10T04:33:35;10.78;81.55
72106;SHT30;59975;47.646;18.318;2023-05-10T04:36:02;10.79;80.81
72106;SHT30;59975;47.646;18.318;2023-05-10T04:38:28;10.83;80.89
72106;SHT30;59975;47.646;18.318;2023-05-10T04:40:54;10.88;80.49
72106;SHT30;59975;47.646;18.318;2023-05-10T04:43:19;10.93;80.34
72106;SHT30;59975;47.646;18.318;2023-05-10T04:45:45;11.00;80.35
72106;SHT30;59975;47.646;18.318;2023-05-10T04:48:11;11.06;80.14
72106;SHT30;59975;47.646;18.318;2023-05-10T04:50:36;11.08;79.53
72106;SHT30;59975;47.646;18.318;2023-05-10T04:53:02;11.12;79.58
72106;SHT30;59975;47.646;18.318;2023-05-10T04:55:27;11.23;79.14
72106;SHT30;59975;47.646;18.318;2023-05-10T04:57:53;11.30;79.00
72106;SHT30;59975;47.646;18.318;2023-05-10T05:00:22;11.33;78.55
72106;SHT30;59975;47.646;18.318;2023-05-10T05:02:47;11.33;78.35
72106;SHT30;59975;47.646;18.318;2023-05-10T05:05:13;11.43;78.19
72106;SHT30;59975;47.646;18.318;2023-05-10T05:07:39;11.43;77.96
72106;SHT30;59975;47.646;18.318;2023-05-10T05:10:06;11.51;77.72
72106;SHT30;59975;47.646;18.318;2023-05-10T05:12:32;11.51;77.82
72106;SHT30;59975;47.646;18.318;2023-05-10T05:14:58;11.61;77.78
72106;SHT30;59975;47.646;18.318;2023-05-10T05:17:23;11.77;77.12
72106;SHT30;59975;47.646;18.318;2023-05-10T05:19:49;11.81;76.25
72106;SHT30;59975;47.646;18.318;2023-05-10T05:22:14;11.82;76.69
72106;SHT30;59975;47.646;18.318;2023-05-10T05:24:40;11.85;76.80
72106;SHT30;59975;47.646;18.318;2023-05-10T05:27:05;11.91;76.53
72106;SHT30;59975;47.646;18.318;2023-05-10T05:29:31;12.02;76.19
72106;SHT30;59975;47.646;18.318;2023-05-10T05:31:57;12.08;76.38
72106;SHT30;59975;47.646;18.318;2023-05-10T05:34:22;12.11;76.22
72106;SHT30;59975;47.646;18.318;2023-05-10T05:36:49;12.14;76.10
72106;SHT30;59975;47.646;18.318;2023-05-10T05:39:15;12.21;75.62
72106;SHT30;59975;47.646;18.318;2023-05-10T05:41:40;12.34;75.51
72106;SHT30;59975;47.646;18.318;2023-05-10T05:44:06;12.31;75.26
72106;SHT30;59975;47.646;18.318;2023-05-10T05:46:32;12.46;74.87
72106;SHT30;59975;47.646;18.318;2023-05-10T05:48:57;12.49;74.35
72106;SHT30;59975;47.646;18.318;2023-05-10T05:51:23;12.60;74.65
72106;SHT30;59975;47.646;18.318;2023-05-10T05:53:48;12.66;73.65
72106;SHT30;59975;47.646;18.318;2023-05-10T05:56:14;12.63;73.95
72106;SHT30;59975;47.646;18.318;2023-05-10T05:58:40;12.70;73.55
72106;SHT30;59975;47.646;18.318;2023-05-10T06:01:05;12.77;73.77
72106;SHT30;59975;47.646;18.318;2023-05-10T06:03:42;12.82;73.03
